Aérodrome :
LOGIN :

S'inscrire | Disclaimer

   EN    FR    IT 

 










Légende :    VFR   VFR Marginal   IFR   IFR Intensif   IFR Très Intensif
Visi : 
Plafond : 
>= 8 km
>= 3000ft
5 à 8 km
1000 à 3000 ft
1500m à 5 km
500 à 1000 ft
800 à 1500m
200 à 500 ft
< 800m
< 200 ft
Symboles :   Orages  Brouillard  Fortes neiges  Fortes précipitations  Vent > 20 kt
SIGMETs :   Divers  Orages  Givrage  Turbulence  Onde Orograph.  Cendres Volcan.






- Altitude de l'aérodrome : 1768 ft


LEHC - Huesca Pirineos

DERNIER METAR :
  • 260730Z AUTO 29004KT 9999 OVC013 06/06 Q1019

METARs EXPIRÉS :
  • 260700Z AUTO 31006KT 9000 OVC012 06/06 Q1019
  • 260630Z AUTO 33003KT 6000 -DZ OVC012 06/06 Q1018
  • 260600Z AUTO 30004KT 6000 1100NW R30L/P2000 R12R/1200D -RA OVC010 06/06 Q1018
  • 260530Z AUTO 32001KT 8000 -RA OVC011 06/06 Q1018
  • 260500Z AUTO VRB02KT 8000 -RA OVC010 06/06 Q1018

TAF TAF LEHC
Valide du 26 à 03h jusqu'au 27 à 03h UTC


260200Z 2603/2703 VRB03KT 9999 BKN030 TX12/2614Z TN02/2607Z
PROB40
TEMPO 2603/2610 4000 DZ BR BKN014
BECMG 2611/2613 28010KT
BECMG 2617/2619 VRB03KT



MET'MAP, la Météo Aéronautique d'un coup d'oeil ! - Copyright ORBIFLY Décembre 2007 - Disclaimer

ORBIFLY MET'MAP TEAM :

Programmation & Développement : Alexandra Zaïnal
Sur une idée originale de : Baudouin d'Aumeries
Assistance à la programmation : Marc-Olivier Méhu
Soutien technique & logistique : Manuel Goepfert

Contact : metmap@orbifly.com




SOURCES & CREDITS :

   NOAA